createdAt,value
2023-01-09T00:00:43.797Z,40.17
2023-01-09T00:05:45.256Z,38.30
2023-01-09T00:10:49.760Z,38.42
2023-01-09T00:15:51.489Z,43.35
2023-01-09T00:20:52.929Z,45.20
2023-01-09T00:26:08.901Z,45.00
2023-01-09T00:31:11.172Z,42.47
2023-01-09T00:36:12.654Z,43.78
2023-01-09T00:41:19.833Z,48.72
2023-01-09T00:46:31.274Z,52.42
2023-01-09T00:51:32.703Z,45.92
2023-01-09T00:56:35.688Z,48.38
2023-01-09T01:01:37.245Z,52.65
2023-01-09T01:06:57.133Z,56.95
2023-01-09T01:11:58.544Z,51.13
2023-01-09T01:17:00.349Z,58.40
2023-01-09T01:22:02.801Z,58.10
2023-01-09T01:27:04.276Z,58.30
2023-01-09T01:32:05.761Z,56.72
2023-01-09T01:37:07.420Z,61.90
2023-01-09T01:42:11.604Z,58.05
2023-01-09T01:47:14.502Z,55.50
2023-01-09T01:52:17.604Z,59.95
2023-01-09T01:57:19.120Z,59.65
2023-01-09T02:02:23.701Z,57.75
2023-01-09T02:07:25.385Z,58.97
2023-01-09T02:12:28.004Z,56.22
2023-01-09T02:17:59.550Z,55.33
2023-01-09T02:23:55.100Z,54.33
2023-01-09T02:29:20.992Z,59.28
2023-01-09T02:34:30.893Z,55.58
2023-01-09T02:39:51.420Z,56.85
2023-01-09T02:44:53.495Z,54.38
2023-01-09T02:49:57.699Z,49.42
2023-01-09T02:55:04.942Z,52.35
2023-01-09T03:00:06.524Z,52.58
2023-01-09T03:05:30.714Z,49.20
2023-01-09T03:10:41.451Z,49.38
2023-01-09T03:15:45.849Z,49.60
2023-01-09T03:20:49.672Z,52.13
2023-01-09T03:25:51.093Z,45.40
2023-01-09T03:30:52.547Z,48.45
2023-01-09T03:35:53.975Z,49.00
2023-01-09T03:40:55.447Z,49.70
2023-01-09T03:45:56.939Z,43.90
2023-01-09T03:50:58.687Z,42.40
2023-01-09T03:56:00.379Z,41.35
2023-01-09T04:01:05.286Z,42.13
2023-01-09T04:06:07.284Z,42.03
2023-01-09T04:11:08.752Z,40.88
2023-01-09T04:16:10.199Z,45.33
2023-01-09T04:21:11.671Z,41.83
2023-01-09T04:26:13.213Z,44.03
2023-01-09T04:31:15.802Z,42.17
2023-01-09T04:36:17.284Z,42.05
2023-01-09T04:41:43.592Z,44.33
2023-01-09T04:46:45.191Z,42.00
2023-01-09T04:51:47.203Z,43.25
2023-01-09T04:56:48.722Z,44.72
2023-01-09T05:01:52.263Z,42.45
2023-01-09T05:06:53.924Z,45.03
2023-01-09T05:11:55.423Z,46.88
2023-01-09T05:16:56.891Z,54.38
2023-01-09T05:21:58.356Z,48.67
2023-01-09T05:26:59.858Z,46.53
2023-01-09T05:32:01.563Z,44.20
2023-01-09T05:37:03.066Z,48.50
2023-01-09T05:42:04.651Z,48.35
2023-01-09T05:47:06.129Z,44.25
2023-01-09T05:52:08.556Z,43.45
2023-01-09T05:57:09.976Z,42.33
2023-01-09T06:02:11.611Z,42.33
2023-01-09T06:07:16.630Z,41.40
2023-01-09T06:12:21.018Z,41.92
2023-01-09T06:17:22.492Z,42.30
2023-01-09T06:22:23.898Z,38.25
2023-01-09T06:27:25.682Z,40.03
2023-01-09T06:32:27.147Z,40.38
2023-01-09T06:37:28.710Z,40.03
2023-01-09T06:42:30.141Z,39.22
2023-01-09T06:47:31.557Z,37.95
2023-01-09T06:52:32.961Z,36.15
2023-01-09T06:57:34.757Z,35.97
2023-01-09T07:02:36.277Z,38.08
2023-01-09T07:07:41.301Z,40.22
2023-01-09T07:12:42.736Z,43.47
2023-01-09T07:17:44.196Z,39.45
2023-01-09T07:22:46.462Z,36.55
2023-01-09T07:27:48.121Z,36.80
2023-01-09T07:32:49.597Z,31.63
2023-01-09T07:37:51.080Z,40.00
2023-01-09T07:42:53.451Z,36.47
2023-01-09T07:47:54.922Z,40.53
2023-01-09T07:52:56.433Z,40.42
2023-01-09T07:57:57.865Z,41.75
2023-01-09T08:02:59.331Z,46.45
2023-01-09T08:08:01.955Z,44.67
2023-01-09T08:13:03.402Z,42.35
2023-01-09T08:18:04.912Z,49.42
2023-01-09T08:23:06.350Z,46.78
2023-01-09T08:28:09.332Z,44.95
2023-01-09T08:33:11.075Z,43.33
2023-01-09T08:38:12.796Z,42.45
2023-01-09T08:43:32.947Z,42.88
2023-01-09T08:48:34.353Z,38.60
2023-01-09T08:53:35.799Z,39.17
2023-01-09T08:58:37.291Z,33.53
2023-01-09T09:03:38.708Z,32.97
2023-01-09T09:08:40.136Z,35.22
2023-01-09T09:13:41.547Z,31.42
2023-01-09T09:18:42.949Z,31.35
2023-01-09T09:23:44.431Z,30.45
2023-01-09T09:28:45.857Z,33.35
2023-01-09T09:33:47.487Z,29.65
2023-01-09T09:38:48.893Z,37.13
2023-01-09T09:44:35.227Z,35.90
2023-01-09T09:49:56.222Z,39.17
2023-01-09T09:55:02.527Z,41.88
2023-01-09T10:00:06.460Z,39.33
2023-01-09T10:05:17.376Z,35.35
2023-01-09T10:10:28.121Z,29.25
2023-01-09T10:15:40.554Z,27.48
2023-01-09T10:20:50.572Z,26.88
2023-01-09T10:26:15.323Z,31.40
2023-01-09T10:31:48.858Z,33.50
2023-01-09T10:37:20.163Z,32.72
2023-01-09T10:42:44.345Z,36.10
2023-01-09T10:47:46.539Z,32.28
2023-01-09T10:52:51.049Z,30.67
2023-01-09T10:57:58.598Z,32.13
2023-01-09T11:03:00.099Z,27.85
2023-01-09T11:08:12.048Z,29.92
2023-01-09T11:13:25.110Z,28.85
2023-01-09T11:18:27.540Z,32.50
2023-01-09T11:23:31.828Z,34.05
2023-01-09T11:28:33.310Z,34.45
2023-01-09T11:33:41.260Z,30.63
2023-01-09T11:38:57.781Z,28.77
2023-01-09T11:44:00.450Z,33.50
2023-01-09T11:49:04.311Z,33.97
2023-01-09T11:54:29.605Z,30.38
2023-01-09T11:59:31.584Z,34.28
2023-01-09T12:04:54.631Z,36.65
2023-01-09T12:10:03.287Z,39.60
2023-01-09T12:15:26.676Z,35.70
2023-01-09T12:20:58.716Z,31.63
2023-01-09T12:26:24.155Z,31.52
2023-01-09T12:31:48.632Z,18.65
2023-01-09T12:37:11.900Z,15.75
2023-01-09T12:42:31.987Z,13.98
2023-01-09T12:48:22.942Z,13.68
2023-01-09T12:53:31.149Z,9.98
2023-01-09T12:58:42.996Z,11.68
2023-01-09T13:03:52.409Z,9.80
2023-01-09T13:14:24.527Z,8.85
2023-01-09T13:19:39.452Z,7.60
2023-01-09T13:25:06.385Z,9.77
2023-01-09T13:30:17.987Z,8.45
2023-01-09T13:35:19.510Z,10.20
2023-01-09T13:40:26.689Z,10.65
2023-01-09T13:45:31.341Z,11.35
2023-01-09T13:50:32.773Z,11.52
2023-01-09T13:55:36.206Z,11.43
2023-01-09T14:00:38.146Z,9.75
2023-01-09T14:05:39.505Z,13.07
2023-01-09T14:10:43.693Z,9.63
2023-01-09T14:15:47.097Z,11.35
2023-01-09T14:20:58.747Z,12.50
2023-01-09T14:26:01.283Z,10.73
2023-01-09T14:31:05.003Z,12.00
2023-01-09T14:36:22.168Z,11.20
2023-01-09T14:42:03.925Z,12.75
2023-01-09T14:47:17.645Z,14.88
2023-01-09T14:52:24.802Z,14.18
2023-01-09T14:57:28.800Z,15.05
2023-01-09T15:02:33.856Z,12.95
2023-01-09T15:07:44.242Z,13.30
2023-01-09T15:12:49.333Z,12.43
2023-01-09T15:18:03.275Z,12.80
2023-01-09T15:23:05.459Z,10.45
2023-01-09T15:28:32.012Z,10.55
2023-01-09T15:33:34.745Z,10.95
2023-01-09T15:38:36.307Z,8.35
2023-01-09T15:43:43.379Z,7.47
2023-01-09T15:48:45.161Z,8.85
2023-01-09T15:53:51.071Z,8.05
2023-01-09T15:58:54.504Z,9.73
2023-01-09T16:04:03.796Z,10.00
2023-01-09T16:14:16.225Z,9.68
2023-01-09T16:19:45.843Z,8.25
2023-01-09T16:24:48.544Z,10.70
2023-01-09T16:29:57.399Z,9.93
2023-01-09T16:35:06.031Z,13.30
2023-01-09T16:40:13.815Z,9.68
2023-01-09T16:45:15.386Z,8.90
2023-01-09T16:50:16.898Z,11.80
2023-01-09T16:55:18.453Z,15.93
2023-01-09T17:00:21.279Z,15.02
2023-01-09T17:05:22.735Z,15.43
2023-01-09T17:10:25.456Z,16.27
2023-01-09T17:15:27.026Z,15.93
2023-01-09T17:20:29.862Z,12.27
2023-01-09T17:25:50.000Z,14.30
2023-01-09T17:30:51.472Z,12.68
2023-01-09T17:35:53.404Z,15.15
2023-01-09T17:40:57.785Z,13.02
2023-01-09T17:46:00.109Z,17.25
2023-01-09T17:51:01.729Z,17.17
2023-01-09T17:56:04.918Z,14.30
2023-01-09T18:01:06.437Z,14.65
2023-01-09T18:06:09.674Z,17.25
2023-01-09T18:11:14.811Z,13.70
2023-01-09T18:16:19.186Z,14.02
2023-01-09T18:21:23.284Z,14.38
2023-01-09T18:26:24.739Z,16.60
2023-01-09T18:31:28.256Z,13.95
2023-01-09T18:36:30.230Z,17.52
2023-01-09T18:41:32.288Z,15.02
2023-01-09T18:46:33.763Z,17.60
2023-01-09T18:51:36.648Z,15.15
2023-01-09T18:56:38.161Z,16.38
2023-01-09T19:01:39.658Z,19.27
2023-01-09T19:06:41.075Z,26.23
2023-01-09T19:11:44.412Z,20.58
2023-01-09T19:16:46.237Z,19.60
2023-01-09T19:21:47.712Z,21.92
2023-01-09T19:26:49.498Z,21.10
2023-01-09T19:31:53.025Z,15.25
2023-01-09T19:36:54.491Z,16.85
2023-01-09T19:41:56.066Z,18.00
2023-01-09T19:46:57.467Z,19.95
2023-01-09T19:52:00.667Z,23.77
2023-01-09T19:57:02.211Z,28.10
2023-01-09T20:02:03.733Z,38.13
2023-01-09T20:07:06.010Z,42.75
2023-01-09T20:12:07.583Z,37.35
2023-01-09T20:17:09.067Z,47.67
2023-01-09T20:22:10.473Z,47.00
2023-01-09T20:27:11.909Z,43.35
2023-01-09T20:32:13.330Z,43.38
2023-01-09T20:37:14.782Z,45.72
2023-01-09T20:42:16.234Z,42.80
2023-01-09T20:47:17.686Z,44.50
2023-01-09T20:52:19.127Z,39.17
2023-01-09T20:57:20.577Z,46.33
2023-01-09T21:02:22.458Z,46.45
2023-01-09T21:07:25.029Z,45.03
2023-01-09T21:12:34.800Z,44.35
2023-01-09T21:17:38.893Z,44.95
2023-01-09T21:22:40.433Z,42.47
2023-01-09T21:27:44.381Z,44.45
2023-01-09T21:32:45.806Z,44.88
2023-01-09T21:37:47.210Z,46.58
2023-01-09T21:43:07.114Z,45.65
2023-01-09T21:48:08.604Z,49.35
2023-01-09T21:53:10.083Z,52.20
2023-01-09T21:58:11.497Z,51.78
2023-01-09T22:03:17.275Z,57.95
2023-01-09T22:08:18.772Z,58.95
2023-01-09T22:13:20.458Z,56.17
2023-01-09T22:18:22.415Z,51.17
2023-01-09T22:23:23.859Z,50.35
2023-01-09T22:28:25.359Z,45.15
2023-01-09T22:33:26.761Z,46.03
2023-01-09T22:38:28.173Z,43.10
2023-01-09T22:43:30.044Z,52.47
2023-01-09T22:48:32.376Z,46.92
2023-01-09T22:53:34.320Z,52.55
2023-01-09T22:58:36.213Z,47.28
2023-01-09T23:03:38.106Z,48.55
2023-01-09T23:08:40.083Z,48.97
2023-01-09T23:13:41.804Z,48.55
2023-01-09T23:18:43.204Z,53.00
2023-01-09T23:23:45.010Z,46.72
2023-01-09T23:28:46.465Z,40.17
2023-01-09T23:33:47.921Z,36.08
2023-01-09T23:38:49.575Z,34.60
2023-01-09T23:43:50.989Z,34.30
2023-01-09T23:48:52.399Z,27.17
2023-01-09T23:53:53.845Z,29.83
2023-01-09T23:58:55.269Z,25.08
